Terminal Aerodrome Forecast
Issued by NWS Topeka, KS

Home | Current Version | Previous Version | Text Only | Print | Product List | Glossary Off
Versions: 1 2 3 4 5 6 7 8 9 10 11 12 13 14 15 16 17 18 19 20 21 22 23 24 25 26 27 28

000
FTUS43 KTOP 260255 AAB
TAFTOP
TAF AMD
KTOP 260255Z 2603/2624 15008KT P6SM VCTS SCT030CB
      TEMPO 2603/2604 15020KT 3SM TSRA BKN030CB
     FM260400 15005KT P6SM SCT025 BKN050
      TEMPO 2610/2613 3SM BR SCT020
     FM261300 15009KT P6SM BKN035=

USA.gov is the U.S. government's official web portal to all federal, state and local government web resources and services.